sensor_id;sensor_type;location;lat;lon;timestamp;temperature;humidity
37868;DHT22;24011;48.880;9.190;2022-11-15T00:01:06;23.80;38.40
37868;DHT22;24011;48.880;9.190;2022-11-15T00:05:12;23.80;38.40
37868;DHT22;24011;48.880;9.190;2022-11-15T00:09:30;23.80;38.40
37868;DHT22;24011;48.880;9.190;2022-11-15T00:29:42;23.80;38.50
37868;DHT22;24011;48.880;9.190;2022-11-15T00:33:23;23.80;38.60
37868;DHT22;24011;48.880;9.190;2022-11-15T00:36:57;23.80;38.60
37868;DHT22;24011;48.880;9.190;2022-11-15T00:40:18;23.80;38.60
37868;DHT22;24011;48.880;9.190;2022-11-15T00:44:35;23.80;38.60
37868;DHT22;24011;48.880;9.190;2022-11-15T01:12:44;23.70;38.70
37868;DHT22;24011;48.880;9.190;2022-11-15T01:16:53;23.70;38.70
37868;DHT22;24011;48.880;9.190;2022-11-15T01:24:54;23.70;38.70
37868;DHT22;24011;48.880;9.190;2022-11-15T01:45:04;23.70;38.70
37868;DHT22;24011;48.880;9.190;2022-11-15T01:48:40;23.70;38.80
37868;DHT22;24011;48.880;9.190;2022-11-15T01:52:00;23.70;38.80
37868;DHT22;24011;48.880;9.190;2022-11-15T01:55:35;23.70;38.70
37868;DHT22;24011;48.880;9.190;2022-11-15T01:58:59;23.70;38.80
37868;DHT22;24011;48.880;9.190;2022-11-15T02:02:47;23.70;38.80
37868;DHT22;24011;48.880;9.190;2022-11-15T02:06:11;23.70;38.90
37868;DHT22;24011;48.880;9.190;2022-11-15T02:09:41;23.70;38.80
37868;DHT22;24011;48.880;9.190;2022-11-15T02:13:01;23.70;38.80
37868;DHT22;24011;48.880;9.190;2022-11-15T02:16:35;23.70;38.80
37868;DHT22;24011;48.880;9.190;2022-11-15T02:24:24;23.70;38.90
37868;DHT22;24011;48.880;9.190;2022-11-15T02:31:53;23.70;38.90
37868;DHT22;24011;48.880;9.190;2022-11-15T02:35:23;23.70;39.00
37868;DHT22;24011;48.880;9.190;2022-11-15T02:38:59;23.70;39.00
37868;DHT22;24011;48.880;9.190;2022-11-15T02:42:30;23.70;39.00
37868;DHT22;24011;48.880;9.190;2022-11-15T02:46:03;23.70;39.00
37868;DHT22;24011;48.880;9.190;2022-11-15T02:49:53;23.70;39.00
37868;DHT22;24011;48.880;9.190;2022-11-15T02:53:23;23.70;39.00
37868;DHT22;24011;48.880;9.190;2022-11-15T02:56:47;23.70;39.00
37868;DHT22;24011;48.880;9.190;2022-11-15T03:00:23;23.70;39.00
37868;DHT22;24011;48.880;9.190;2022-11-15T03:03:59;23.70;39.10
37868;DHT22;24011;48.880;9.190;2022-11-15T03:07:37;23.60;39.00
37868;DHT22;24011;48.880;9.190;2022-11-15T03:11:00;23.70;39.70
37868;DHT22;24011;48.880;9.190;2022-11-15T03:14:35;23.70;39.10
37868;DHT22;24011;48.880;9.190;2022-11-15T03:17:59;23.70;39.00
37868;DHT22;24011;48.880;9.190;2022-11-15T03:21:29;23.60;39.00
37868;DHT22;24011;48.880;9.190;2022-11-15T03:25:07;23.70;39.00
37868;DHT22;24011;48.880;9.190;2022-11-15T03:28:36;23.70;39.10
37868;DHT22;24011;48.880;9.190;2022-11-15T03:32:00;23.70;39.10
37868;DHT22;24011;48.880;9.190;2022-11-15T03:35:36;23.70;39.60
37868;DHT22;24011;48.880;9.190;2022-11-15T03:39:00;23.70;39.00
37868;DHT22;24011;48.880;9.190;2022-11-15T03:42:48;23.70;39.10
37868;DHT22;24011;48.880;9.190;2022-11-15T03:46:19;23.60;39.10
37868;DHT22;24011;48.880;9.190;2022-11-15T03:49:55;23.60;39.10
37868;DHT22;24011;48.880;9.190;2022-11-15T03:53:19;23.60;39.10
37868;DHT22;24011;48.880;9.190;2022-11-15T03:56:49;23.60;39.10
37868;DHT22;24011;48.880;9.190;2022-11-15T04:00:12;23.60;39.10
37868;DHT22;24011;48.880;9.190;2022-11-15T04:03:48;23.60;39.20
37868;DHT22;24011;48.880;9.190;2022-11-15T04:07:06;23.60;39.10
37868;DHT22;24011;48.880;9.190;2022-11-15T04:10:42;23.70;38.90
37868;DHT22;24011;48.880;9.190;2022-11-15T04:14:06;23.80;38.60
37868;DHT22;24011;48.880;9.190;2022-11-15T04:17:48;23.80;38.10
37868;DHT22;24011;48.880;9.190;2022-11-15T04:21:18;23.90;38.00
37868;DHT22;24011;48.880;9.190;2022-11-15T04:24:49;24.00;37.70
37868;DHT22;24011;48.880;9.190;2022-11-15T04:28:13;24.00;37.50
37868;DHT22;24011;48.880;9.190;2022-11-15T04:32:24;24.10;37.50
37868;DHT22;24011;48.880;9.190;2022-11-15T05:20:20;24.20;36.60
37868;DHT22;24011;48.880;9.190;2022-11-15T05:23:48;24.20;36.60
37868;DHT22;24011;48.880;9.190;2022-11-15T05:27:36;24.20;36.60
37868;DHT22;24011;48.880;9.190;2022-11-15T05:31:14;24.20;36.50
37868;DHT22;24011;48.880;9.190;2022-11-15T05:34:30;24.20;36.50
37868;DHT22;24011;48.880;9.190;2022-11-15T05:37:50;24.20;36.50
37868;DHT22;24011;48.880;9.190;2022-11-15T05:41:09;24.10;36.50
37868;DHT22;24011;48.880;9.190;2022-11-15T05:45:03;24.10;36.70
37868;DHT22;24011;48.880;9.190;2022-11-15T06:04:27;24.10;36.60
37868;DHT22;24011;48.880;9.190;2022-11-15T06:07:41;24.10;36.50
37868;DHT22;24011;48.880;9.190;2022-11-15T06:19:05;24.20;36.40
37868;DHT22;24011;48.880;9.190;2022-11-15T06:22:25;24.20;36.40
37868;DHT22;24011;48.880;9.190;2022-11-15T06:25:39;24.10;36.30
37868;DHT22;24011;48.880;9.190;2022-11-15T06:29:01;24.20;36.30
37868;DHT22;24011;48.880;9.190;2022-11-15T06:32:01;24.20;36.20
37868;DHT22;24011;48.880;9.190;2022-11-15T06:35:16;24.20;36.80
37868;DHT22;24011;48.880;9.190;2022-11-15T06:38:33;24.10;36.30
37868;DHT22;24011;48.880;9.190;2022-11-15T06:41:49;24.10;36.20
37868;DHT22;24011;48.880;9.190;2022-11-15T06:45:16;24.20;36.30
37868;DHT22;24011;48.880;9.190;2022-11-15T06:48:24;24.10;36.20
37868;DHT22;24011;48.880;9.190;2022-11-15T06:51:14;24.20;36.30
37868;DHT22;24011;48.880;9.190;2022-11-15T06:54:10;24.20;36.20
37868;DHT22;24011;48.880;9.190;2022-11-15T06:57:19;24.20;36.00
37868;DHT22;24011;48.880;9.190;2022-11-15T07:00:39;24.30;36.00
37868;DHT22;24011;48.880;9.190;2022-11-15T07:03:49;24.30;36.00
37868;DHT22;24011;48.880;9.190;2022-11-15T07:06:46;24.40;36.00
37868;DHT22;24011;48.880;9.190;2022-11-15T07:09:58;24.40;36.10
37868;DHT22;24011;48.880;9.190;2022-11-15T07:13:11;24.40;36.00
37868;DHT22;24011;48.880;9.190;2022-11-15T07:16:04;24.40;36.00
37868;DHT22;24011;48.880;9.190;2022-11-15T07:18:52;24.50;36.00
37868;DHT22;24011;48.880;9.190;2022-11-15T07:22:05;24.50;36.10
37868;DHT22;24011;48.880;9.190;2022-11-15T07:25:21;24.50;36.10
37868;DHT22;24011;48.880;9.190;2022-11-15T07:28:10;24.60;36.10
37868;DHT22;24011;48.880;9.190;2022-11-15T07:31:22;24.60;36.10
37868;DHT22;24011;48.880;9.190;2022-11-15T07:34:22;24.60;36.20
37868;DHT22;24011;48.880;9.190;2022-11-15T07:37:02;24.60;36.10
37868;DHT22;24011;48.880;9.190;2022-11-15T07:40:07;24.50;36.10
37868;DHT22;24011;48.880;9.190;2022-11-15T07:43:04;24.50;36.20
37868;DHT22;24011;48.880;9.190;2022-11-15T07:50:12;24.50;36.20
37868;DHT22;24011;48.880;9.190;2022-11-15T07:53:11;24.60;36.20
37868;DHT22;24011;48.880;9.190;2022-11-15T07:56:05;24.50;36.00
37868;DHT22;24011;48.880;9.190;2022-11-15T07:59:16;24.60;36.00
37868;DHT22;24011;48.880;9.190;2022-11-15T08:02:14;24.60;36.00
37868;DHT22;24011;48.880;9.190;2022-11-15T08:05:20;24.60;36.00
37868;DHT22;24011;48.880;9.190;2022-11-15T08:08:34;24.60;36.00
37868;DHT22;24011;48.880;9.190;2022-11-15T08:12:00;24.60;35.90
37868;DHT22;24011;48.880;9.190;2022-11-15T08:14:54;24.80;35.80
37868;DHT22;24011;48.880;9.190;2022-11-15T08:17:42;24.80;35.70
37868;DHT22;24011;48.880;9.190;2022-11-15T08:20:22;24.80;35.80
37868;DHT22;24011;48.880;9.190;2022-11-15T08:23:22;24.80;35.70
37868;DHT22;24011;48.880;9.190;2022-11-15T08:26:21;24.80;35.70
37868;DHT22;24011;48.880;9.190;2022-11-15T08:29:04;24.80;35.70
37868;DHT22;24011;48.880;9.190;2022-11-15T08:32:14;24.80;35.80
37868;DHT22;24011;48.880;9.190;2022-11-15T08:35:01;24.80;35.70
37868;DHT22;24011;48.880;9.190;2022-11-15T08:38:21;24.80;35.90
37868;DHT22;24011;48.880;9.190;2022-11-15T08:41:23;24.90;35.90
37868;DHT22;24011;48.880;9.190;2022-11-15T08:44:19;24.90;35.90
37868;DHT22;24011;48.880;9.190;2022-11-15T08:47:00;24.90;36.00
37868;DHT22;24011;48.880;9.190;2022-11-15T08:50:05;24.90;36.00
37868;DHT22;24011;48.880;9.190;2022-11-15T08:52:53;24.90;35.90
37868;DHT22;24011;48.880;9.190;2022-11-15T08:56:08;24.90;35.90
37868;DHT22;24011;48.880;9.190;2022-11-15T08:59:32;25.00;36.00
37868;DHT22;24011;48.880;9.190;2022-11-15T09:02:36;25.00;35.90
37868;DHT22;24011;48.880;9.190;2022-11-15T09:05:54;25.00;35.70
37868;DHT22;24011;48.880;9.190;2022-11-15T09:08:25;25.00;35.70
37868;DHT22;24011;48.880;9.190;2022-11-15T09:11:23;25.00;35.70
37868;DHT22;24011;48.880;9.190;2022-11-15T09:14:21;25.00;35.70
37868;DHT22;24011;48.880;9.190;2022-11-15T09:17:18;25.00;35.60
37868;DHT22;24011;48.880;9.190;2022-11-15T09:20:13;25.00;35.60
37868;DHT22;24011;48.880;9.190;2022-11-15T09:22:54;25.00;35.60
37868;DHT22;24011;48.880;9.190;2022-11-15T09:26:06;25.00;35.50
37868;DHT22;24011;48.880;9.190;2022-11-15T09:29:05;25.10;35.50
37868;DHT22;24011;48.880;9.190;2022-11-15T09:31:53;25.00;35.50
37868;DHT22;24011;48.880;9.190;2022-11-15T09:34:53;25.10;36.00
37868;DHT22;24011;48.880;9.190;2022-11-15T09:37:54;25.10;35.40
37868;DHT22;24011;48.880;9.190;2022-11-15T09:44:42;25.10;35.20
37868;DHT22;24011;48.880;9.190;2022-11-15T09:48:45;25.00;35.10
37868;DHT22;24011;48.880;9.190;2022-11-15T09:51:57;25.10;35.20
37868;DHT22;24011;48.880;9.190;2022-11-15T09:55:26;25.20;35.20
37868;DHT22;24011;48.880;9.190;2022-11-15T09:58:54;25.20;35.20
37868;DHT22;24011;48.880;9.190;2022-11-15T10:02:18;25.20;35.10
37868;DHT22;24011;48.880;9.190;2022-11-15T10:06:08;25.20;35.10
37868;DHT22;24011;48.880;9.190;2022-11-15T10:09:51;25.20;35.10
37868;DHT22;24011;48.880;9.190;2022-11-15T10:12:59;25.20;35.20
37868;DHT22;24011;48.880;9.190;2022-11-15T10:19:28;25.20;35.00
37868;DHT22;24011;48.880;9.190;2022-11-15T10:25:58;25.20;35.10
37868;DHT22;24011;48.880;9.190;2022-11-15T10:28:47;25.20;35.20
37868;DHT22;24011;48.880;9.190;2022-11-15T10:31:43;25.30;35.10
37868;DHT22;24011;48.880;9.190;2022-11-15T10:34:47;25.30;35.10
37868;DHT22;24011;48.880;9.190;2022-11-15T10:37:39;25.30;35.10
37868;DHT22;24011;48.880;9.190;2022-11-15T10:45:38;25.20;35.20
37868;DHT22;24011;48.880;9.190;2022-11-15T10:49:20;25.10;35.10
37868;DHT22;24011;48.880;9.190;2022-11-15T10:52:26;25.10;35.30
37868;DHT22;24011;48.880;9.190;2022-11-15T10:56:16;25.10;35.30
37868;DHT22;24011;48.880;9.190;2022-11-15T10:59:32;25.20;35.20
37868;DHT22;24011;48.880;9.190;2022-11-15T11:06:54;25.20;35.20
37868;DHT22;24011;48.880;9.190;2022-11-15T11:09:56;25.20;35.50
37868;DHT22;24011;48.880;9.190;2022-11-15T11:13:27;25.20;35.40
37868;DHT22;24011;48.880;9.190;2022-11-15T11:16:54;25.20;35.50
37868;DHT22;24011;48.880;9.190;2022-11-15T11:20:09;25.20;35.60
37868;DHT22;24011;48.880;9.190;2022-11-15T11:24:02;25.20;35.60
37868;DHT22;24011;48.880;9.190;2022-11-15T11:27:26;25.20;35.40
37868;DHT22;24011;48.880;9.190;2022-11-15T11:30:11;25.20;35.50
37868;DHT22;24011;48.880;9.190;2022-11-15T11:33:29;25.30;35.50
37868;DHT22;24011;48.880;9.190;2022-11-15T11:36:35;25.30;35.80
37868;DHT22;24011;48.880;9.190;2022-11-15T11:39:53;25.40;35.40
37868;DHT22;24011;48.880;9.190;2022-11-15T11:43:01;25.40;35.30
37868;DHT22;24011;48.880;9.190;2022-11-15T11:46:45;25.40;35.30
37868;DHT22;24011;48.880;9.190;2022-11-15T11:49:37;25.40;35.50
37868;DHT22;24011;48.880;9.190;2022-11-15T11:52:30;25.40;35.40
37868;DHT22;24011;48.880;9.190;2022-11-15T11:55:37;25.40;35.40
37868;DHT22;24011;48.880;9.190;2022-11-15T12:02:53;25.40;35.50
37868;DHT22;24011;48.880;9.190;2022-11-15T12:06:04;25.50;35.50
37868;DHT22;24011;48.880;9.190;2022-11-15T12:08:58;25.40;35.50
37868;DHT22;24011;48.880;9.190;2022-11-15T12:12:09;25.40;35.50
37868;DHT22;24011;48.880;9.190;2022-11-15T12:15:04;25.50;35.50
37868;DHT22;24011;48.880;9.190;2022-11-15T12:18:12;25.40;35.50
37868;DHT22;24011;48.880;9.190;2022-11-15T12:21:16;25.50;35.50
37868;DHT22;24011;48.880;9.190;2022-11-15T12:24:16;25.50;35.50
37868;DHT22;24011;48.880;9.190;2022-11-15T12:27:31;25.50;35.50
37868;DHT22;24011;48.880;9.190;2022-11-15T12:30:54;25.50;35.40
37868;DHT22;24011;48.880;9.190;2022-11-15T12:34:04;25.50;35.50
37868;DHT22;24011;48.880;9.190;2022-11-15T12:41:14;25.40;35.50
37868;DHT22;24011;48.880;9.190;2022-11-15T12:44:01;25.40;35.60
37868;DHT22;24011;48.880;9.190;2022-11-15T12:47:27;25.30;35.70
37868;DHT22;24011;48.880;9.190;2022-11-15T12:54:03;25.20;35.80
37868;DHT22;24011;48.880;9.190;2022-11-15T13:01:09;25.20;35.80
37868;DHT22;24011;48.880;9.190;2022-11-15T13:04:30;25.30;36.10
37868;DHT22;24011;48.880;9.190;2022-11-15T13:07:59;25.20;36.00
37868;DHT22;24011;48.880;9.190;2022-11-15T13:15:55;25.30;36.10
37868;DHT22;24011;48.880;9.190;2022-11-15T13:19:35;25.30;36.00
37868;DHT22;24011;48.880;9.190;2022-11-15T13:22:12;25.30;36.00
37868;DHT22;24011;48.880;9.190;2022-11-15T13:25:28;25.30;36.10
37868;DHT22;24011;48.880;9.190;2022-11-15T13:28:36;25.30;36.10
37868;DHT22;24011;48.880;9.190;2022-11-15T13:31:34;25.20;36.10
37868;DHT22;24011;48.880;9.190;2022-11-15T13:34:39;25.30;36.20
37868;DHT22;24011;48.880;9.190;2022-11-15T13:37:35;25.30;36.10
37868;DHT22;24011;48.880;9.190;2022-11-15T14:06:28;25.20;36.30
37868;DHT22;24011;48.880;9.190;2022-11-15T14:09:32;25.10;36.50
37868;DHT22;24011;48.880;9.190;2022-11-15T14:13:02;25.10;36.40
37868;DHT22;24011;48.880;9.190;2022-11-15T14:15:47;25.20;36.50
37868;DHT22;24011;48.880;9.190;2022-11-15T14:18:52;25.10;36.50
37868;DHT22;24011;48.880;9.190;2022-11-15T14:22:17;25.10;36.40
37868;DHT22;24011;48.880;9.190;2022-11-15T14:25:22;25.10;36.40
37868;DHT22;24011;48.880;9.190;2022-11-15T14:28:38;25.10;36.40
37868;DHT22;24011;48.880;9.190;2022-11-15T14:32:20;25.10;36.40
37868;DHT22;24011;48.880;9.190;2022-11-15T14:35:20;25.10;36.30
37868;DHT22;24011;48.880;9.190;2022-11-15T14:38:39;25.10;36.30
37868;DHT22;24011;48.880;9.190;2022-11-15T14:41:33;25.10;36.30
37868;DHT22;24011;48.880;9.190;2022-11-15T14:44:36;25.00;36.40
37868;DHT22;24011;48.880;9.190;2022-11-15T14:47:15;24.90;36.40
37868;DHT22;24011;48.880;9.190;2022-11-15T14:50:21;24.90;36.40
37868;DHT22;24011;48.880;9.190;2022-11-15T14:54:01;25.00;36.50
37868;DHT22;24011;48.880;9.190;2022-11-15T14:56:35;24.90;36.50
37868;DHT22;24011;48.880;9.190;2022-11-15T14:59:30;24.90;36.50
37868;DHT22;24011;48.880;9.190;2022-11-15T15:02:36;24.90;36.50
37868;DHT22;24011;48.880;9.190;2022-11-15T15:05:41;24.90;36.50
37868;DHT22;24011;48.880;9.190;2022-11-15T15:09:35;24.90;36.50
37868;DHT22;24011;48.880;9.190;2022-11-15T15:13:22;24.90;36.50
37868;DHT22;24011;48.880;9.190;2022-11-15T15:16:35;24.90;36.50
37868;DHT22;24011;48.880;9.190;2022-11-15T15:24:04;24.90;36.50
37868;DHT22;24011;48.880;9.190;2022-11-15T15:27:05;24.90;36.50
37868;DHT22;24011;48.880;9.190;2022-11-15T15:30:43;24.80;36.50
37868;DHT22;24011;48.880;9.190;2022-11-15T15:33:47;24.90;36.50
37868;DHT22;24011;48.880;9.190;2022-11-15T15:37:19;24.90;36.40
37868;DHT22;24011;48.880;9.190;2022-11-15T15:40:29;24.90;36.40
37868;DHT22;24011;48.880;9.190;2022-11-15T16:08:26;24.70;36.70
37868;DHT22;24011;48.880;9.190;2022-11-15T16:12:24;24.70;36.70
37868;DHT22;24011;48.880;9.190;2022-11-15T16:16:04;24.70;36.80
37868;DHT22;24011;48.880;9.190;2022-11-15T16:28:26;24.80;36.80
37868;DHT22;24011;48.880;9.190;2022-11-15T16:35:48;24.80;36.70
37868;DHT22;24011;48.880;9.190;2022-11-15T16:53:34;24.60;36.90
37868;DHT22;24011;48.880;9.190;2022-11-15T17:01:41;24.50;37.00
37868;DHT22;24011;48.880;9.190;2022-11-15T17:05:21;24.50;36.90
37868;DHT22;24011;48.880;9.190;2022-11-15T17:17:17;24.60;36.80
37868;DHT22;24011;48.880;9.190;2022-11-15T17:25:25;24.60;36.70
37868;DHT22;24011;48.880;9.190;2022-11-15T17:29:37;24.60;36.70
37868;DHT22;24011;48.880;9.190;2022-11-15T17:33:38;24.60;36.70
37868;DHT22;24011;48.880;9.190;2022-11-15T17:36:55;24.60;36.60
37868;DHT22;24011;48.880;9.190;2022-11-15T17:40:01;24.60;36.50
37868;DHT22;24011;48.880;9.190;2022-11-15T17:56:02;24.40;36.80
37868;DHT22;24011;48.880;9.190;2022-11-15T18:00:26;24.40;36.70
37868;DHT22;24011;48.880;9.190;2022-11-15T18:04:50;24.40;36.80
37868;DHT22;24011;48.880;9.190;2022-11-15T18:13:10;24.40;36.70
37868;DHT22;24011;48.880;9.190;2022-11-15T18:16:32;24.50;36.60
37868;DHT22;24011;48.880;9.190;2022-11-15T18:20:02;24.50;36.60
37868;DHT22;24011;48.880;9.190;2022-11-15T18:23:44;24.50;36.60
37868;DHT22;24011;48.880;9.190;2022-11-15T18:27:44;24.50;36.50
37868;DHT22;24011;48.880;9.190;2022-11-15T18:42:45;24.50;36.40
37868;DHT22;24011;48.880;9.190;2022-11-15T18:46:31;24.60;36.30
37868;DHT22;24011;48.880;9.190;2022-11-15T18:49:44;24.50;36.40
37868;DHT22;24011;48.880;9.190;2022-11-15T18:53:57;24.50;36.40
37868;DHT22;24011;48.880;9.190;2022-11-15T18:57:43;24.50;36.40
37868;DHT22;24011;48.880;9.190;2022-11-15T19:09:38;24.50;36.40
37868;DHT22;24011;48.880;9.190;2022-11-15T19:29:10;24.40;36.70
37868;DHT22;24011;48.880;9.190;2022-11-15T19:32:44;24.40;36.80
37868;DHT22;24011;48.880;9.190;2022-11-15T19:36:17;24.40;36.80
37868;DHT22;24011;48.880;9.190;2022-11-15T19:39:45;24.40;36.90
37868;DHT22;24011;48.880;9.190;2022-11-15T19:43:11;24.40;37.00
37868;DHT22;24011;48.880;9.190;2022-11-15T19:46:52;24.30;37.00
37868;DHT22;24011;48.880;9.190;2022-11-15T19:50:22;24.30;37.00
37868;DHT22;24011;48.880;9.190;2022-11-15T19:53:57;24.30;37.10
37868;DHT22;24011;48.880;9.190;2022-11-15T19:57:22;24.30;37.10
37868;DHT22;24011;48.880;9.190;2022-11-15T20:00:57;24.30;37.10
37868;DHT22;24011;48.880;9.190;2022-11-15T20:04:29;24.30;37.20
37868;DHT22;24011;48.880;9.190;2022-11-15T20:08:05;24.30;37.20
37868;DHT22;24011;48.880;9.190;2022-11-15T20:11:35;24.30;37.20
37868;DHT22;24011;48.880;9.190;2022-11-15T20:15:03;24.30;37.20
37868;DHT22;24011;48.880;9.190;2022-11-15T20:18:27;24.30;37.20
37868;DHT22;24011;48.880;9.190;2022-11-15T20:22:05;24.30;37.10
37868;DHT22;24011;48.880;9.190;2022-11-15T20:24:57;24.30;37.10
37868;DHT22;24011;48.880;9.190;2022-11-15T20:28:29;24.30;37.20
37868;DHT22;24011;48.880;9.190;2022-11-15T20:31:51;24.30;37.20
37868;DHT22;24011;48.880;9.190;2022-11-15T20:35:21;24.30;37.20
37868;DHT22;24011;48.880;9.190;2022-11-15T20:38:53;24.30;37.20
37868;DHT22;24011;48.880;9.190;2022-11-15T20:42:23;24.30;37.20
37868;DHT22;24011;48.880;9.190;2022-11-15T20:45:47;24.30;37.30
37868;DHT22;24011;48.880;9.190;2022-11-15T20:49:17;24.30;37.40
37868;DHT22;24011;48.880;9.190;2022-11-15T20:52:47;24.30;37.30
37868;DHT22;24011;48.880;9.190;2022-11-15T20:56:18;24.30;37.30
37868;DHT22;24011;48.880;9.190;2022-11-15T20:59:45;24.30;37.40
37868;DHT22;24011;48.880;9.190;2022-11-15T21:03:05;24.20;37.40
37868;DHT22;24011;48.880;9.190;2022-11-15T21:06:39;24.20;37.40
37868;DHT22;24011;48.880;9.190;2022-11-15T21:10:05;24.20;37.40
37868;DHT22;24011;48.880;9.190;2022-11-15T21:13:41;24.20;37.50
37868;DHT22;24011;48.880;9.190;2022-11-15T21:17:05;24.20;37.40
37868;DHT22;24011;48.880;9.190;2022-11-15T21:20:35;24.20;37.50
37868;DHT22;24011;48.880;9.190;2022-11-15T21:23:57;24.20;37.50
37868;DHT22;24011;48.880;9.190;2022-11-15T21:28:17;24.30;37.50
37868;DHT22;24011;48.880;9.190;2022-11-15T21:44:23;24.20;37.40
37868;DHT22;24011;48.880;9.190;2022-11-15T21:48:53;24.20;37.50
37868;DHT22;24011;48.880;9.190;2022-11-15T21:53:11;24.20;37.50
37868;DHT22;24011;48.880;9.190;2022-11-15T21:57:23;24.20;37.50
37868;DHT22;24011;48.880;9.190;2022-11-15T22:29:42;24.10;37.80
37868;DHT22;24011;48.880;9.190;2022-11-15T22:41:30;24.10;37.80
37868;DHT22;24011;48.880;9.190;2022-11-15T23:33:03;24.00;38.10
